createdAt,value
2019-04-03T00:00:35.855Z,7.92
2019-04-03T00:03:07.205Z,7.94
2019-04-03T00:05:38.495Z,7.92
2019-04-03T00:08:10.267Z,7.95
2019-04-03T00:10:41.625Z,7.72
2019-04-03T00:13:13.068Z,7.72
2019-04-03T00:15:44.798Z,7.70
2019-04-03T00:18:16.842Z,7.67
2019-04-03T00:20:49.211Z,7.63
2019-04-03T00:23:22.357Z,7.45
2019-04-03T00:25:54.251Z,7.48
2019-04-03T00:28:25.646Z,7.47
2019-04-03T00:30:57.115Z,7.40
2019-04-03T00:33:28.509Z,7.43
2019-04-03T00:36:00.021Z,7.34
2019-04-03T00:38:31.576Z,7.42
2019-04-03T00:41:02.983Z,7.35
2019-04-03T00:43:34.433Z,7.26
2019-04-03T00:46:06.240Z,7.23
2019-04-03T00:48:37.638Z,7.15
2019-04-03T00:51:09.167Z,7.16
2019-04-03T00:53:40.677Z,7.18
2019-04-03T00:56:12.161Z,7.16
2019-04-03T00:58:44.644Z,7.02
2019-04-03T01:01:16.176Z,7.01
2019-04-03T01:03:47.622Z,7.04
2019-04-03T01:06:19.374Z,7.02
2019-04-03T01:08:50.843Z,6.99
2019-04-03T01:11:22.451Z,6.86
2019-04-03T01:13:54.040Z,6.86
2019-04-03T01:16:25.480Z,6.75
2019-04-03T01:18:56.942Z,6.68
2019-04-03T01:21:28.380Z,6.62
2019-04-03T01:23:59.845Z,6.46
2019-04-03T01:26:31.507Z,6.37
2019-04-03T01:29:03.162Z,6.36
2019-04-03T01:31:34.637Z,6.14
2019-04-03T01:34:06.064Z,6.13
2019-04-03T01:36:37.524Z,6.02
2019-04-03T01:39:09.080Z,6.01
2019-04-03T01:41:40.632Z,5.85
2019-04-03T01:44:13.338Z,5.79
2019-04-03T01:46:44.731Z,5.69
2019-04-03T01:49:16.016Z,5.65
2019-04-03T01:51:47.533Z,5.61
2019-04-03T01:54:19.081Z,5.66
2019-04-03T01:56:50.530Z,5.65
2019-04-03T01:59:22.103Z,5.50
2019-04-03T02:01:53.572Z,5.51
2019-04-03T02:04:25.038Z,5.21
2019-04-03T02:06:57.815Z,5.27
2019-04-03T02:09:29.354Z,5.26
2019-04-03T02:12:00.986Z,5.26
2019-04-03T02:14:32.412Z,5.24
2019-04-03T02:17:03.726Z,5.26
2019-04-03T02:19:35.038Z,5.28
2019-04-03T02:22:06.429Z,5.21
2019-04-03T02:24:38.013Z,5.23
2019-04-03T02:27:09.521Z,5.20
2019-04-03T02:29:41.097Z,5.19
2019-04-03T02:32:12.683Z,5.13
2019-04-03T02:34:44.486Z,5.15
2019-04-03T02:37:16.829Z,5.12
2019-04-03T02:39:49.124Z,5.13
2019-04-03T02:42:20.696Z,5.13
2019-04-03T02:44:52.345Z,5.07
2019-04-03T02:47:24.125Z,5.17
2019-04-03T02:49:55.829Z,5.14
2019-04-03T02:52:28.138Z,5.16
2019-04-03T02:55:00.840Z,5.06
2019-04-03T02:57:32.200Z,4.99
2019-04-03T03:00:03.699Z,4.91
2019-04-03T03:02:35.365Z,4.87
2019-04-03T03:05:07.212Z,4.89
2019-04-03T03:07:38.835Z,4.93
2019-04-03T03:10:10.338Z,4.92
2019-04-03T03:12:42.501Z,4.89
2019-04-03T03:15:14.065Z,4.85
2019-04-03T03:17:46.213Z,4.84
2019-04-03T03:20:22.238Z,4.80
2019-04-03T03:22:55.472Z,4.80
2019-04-03T03:25:27.481Z,4.79
2019-04-03T03:27:59.450Z,4.85
2019-04-03T03:30:41.215Z,4.88
2019-04-03T03:33:24.238Z,4.93
2019-04-03T03:35:43.632Z,4.89
2019-04-03T03:38:12.643Z,4.96
2019-04-03T03:40:47.317Z,4.86
2019-04-03T03:43:18.738Z,4.85
2019-04-03T03:45:52.521Z,4.85
2019-04-03T03:48:25.592Z,4.80
2019-04-03T03:50:58.598Z,4.74
2019-04-03T03:53:32.375Z,4.69
2019-04-03T03:56:04.615Z,4.78
2019-04-03T03:58:37.781Z,4.71
2019-04-03T04:01:09.799Z,4.79
2019-04-03T04:03:42.337Z,4.87
2019-04-03T04:06:14.828Z,4.82
2019-04-03T04:08:46.418Z,4.85
2019-04-03T04:11:18.104Z,4.83
2019-04-03T04:13:50.428Z,4.87
2019-04-03T04:16:22.190Z,4.83
2019-04-03T04:18:57.000Z,4.89
2019-04-03T04:21:27.349Z,4.94
2019-04-03T04:23:59.984Z,4.80
2019-04-03T04:26:32.366Z,4.88
2019-04-03T04:29:04.060Z,4.86
2019-04-03T04:31:35.289Z,4.81
2019-04-03T04:34:06.950Z,4.71
2019-04-03T04:36:38.301Z,4.64
2019-04-03T04:39:10.067Z,4.74
2019-04-03T04:41:41.453Z,4.83
2019-04-03T04:44:14.832Z,4.90
2019-04-03T04:46:46.085Z,4.88
2019-04-03T04:49:17.381Z,4.94
2019-04-03T04:51:49.280Z,4.99
2019-04-03T04:54:20.656Z,5.08
2019-04-03T04:56:52.217Z,5.10
2019-04-03T04:59:23.802Z,4.99
2019-04-03T05:01:55.261Z,5.07
2019-04-03T05:04:26.832Z,5.14
2019-04-03T05:07:00.147Z,5.02
2019-04-03T05:09:34.353Z,5.08
2019-04-03T05:12:04.889Z,5.11
2019-04-03T05:14:36.703Z,5.22
2019-04-03T05:17:09.442Z,5.19
2019-04-03T05:19:41.030Z,5.29
2019-04-03T05:22:12.605Z,5.26
2019-04-03T05:24:44.221Z,5.53
2019-04-03T05:27:15.850Z,5.92
2019-04-03T05:29:47.445Z,6.03
2019-04-03T05:32:19.027Z,6.27
2019-04-03T05:34:50.563Z,6.60
2019-04-03T05:37:21.989Z,6.87
2019-04-03T05:39:55.674Z,6.96
2019-04-03T05:42:28.451Z,7.25
2019-04-03T05:45:00.071Z,7.37
2019-04-03T05:47:31.651Z,7.46
2019-04-03T05:50:03.014Z,7.80
2019-04-03T05:52:35.129Z,7.84
2019-04-03T05:55:08.042Z,7.93
2019-04-03T05:57:40.725Z,8.15
2019-04-03T06:00:12.244Z,8.04
2019-04-03T06:02:44.172Z,8.27
2019-04-03T06:05:18.634Z,8.66
2019-04-03T06:07:49.757Z,8.85
2019-04-03T06:10:21.498Z,9.03
2019-04-03T06:12:52.843Z,9.08
2019-04-03T06:15:24.405Z,9.21
2019-04-03T06:17:55.883Z,9.21
2019-04-03T06:20:27.443Z,8.97
2019-04-03T06:22:58.827Z,9.15
2019-04-03T06:25:32.701Z,9.19
2019-04-03T06:28:03.881Z,9.49
2019-04-03T06:30:35.416Z,9.77
2019-04-03T06:33:07.248Z,10.02
2019-04-03T06:35:38.887Z,10.00
2019-04-03T06:38:12.402Z,10.38
2019-04-03T06:40:43.995Z,10.60
2019-04-03T06:43:17.157Z,10.48
2019-04-03T06:45:48.820Z,10.51
2019-04-03T06:48:20.675Z,10.47
2019-04-03T06:50:52.489Z,10.11
2019-04-03T06:53:27.295Z,10.55
2019-04-03T06:55:57.081Z,10.39
2019-04-03T06:58:37.328Z,10.71
2019-04-03T07:01:02.055Z,10.34
2019-04-03T07:03:35.072Z,10.49
2019-04-03T07:06:06.653Z,10.88
2019-04-03T07:08:40.932Z,11.32
2019-04-03T07:11:22.783Z,11.32
2019-04-03T07:13:44.923Z,11.49
2019-04-03T07:16:16.700Z,11.17
2019-04-03T07:18:48.069Z,11.12
2019-04-03T07:21:22.133Z,11.33
2019-04-03T07:23:53.010Z,11.46
2019-04-03T07:26:24.651Z,11.76
2019-04-03T07:28:56.721Z,11.92
2019-04-03T07:31:28.509Z,11.93
2019-04-03T07:34:01.825Z,11.55
2019-04-03T07:36:33.254Z,11.66
2019-04-03T07:39:06.607Z,11.77
2019-04-03T07:41:41.197Z,11.77
2019-04-03T07:44:11.775Z,11.77
2019-04-03T07:46:43.649Z,12.00
2019-04-03T07:49:15.326Z,12.07
2019-04-03T07:51:47.108Z,11.96
2019-04-03T07:54:20.162Z,12.34
2019-04-03T07:56:52.123Z,12.70
2019-04-03T07:59:24.082Z,13.01
2019-04-03T08:01:55.526Z,13.15
2019-04-03T08:04:27.160Z,13.10
2019-04-03T08:06:59.076Z,12.93
2019-04-03T08:09:30.645Z,13.05
2019-04-03T08:12:04.186Z,13.26
2019-04-03T08:14:35.315Z,13.75
2019-04-03T08:17:06.591Z,13.61
2019-04-03T08:19:37.579Z,13.34
2019-04-03T08:22:09.385Z,13.12
2019-04-03T08:24:40.820Z,13.17
2019-04-03T08:27:11.922Z,13.39
2019-04-03T08:29:42.827Z,13.34
2019-04-03T08:32:16.246Z,13.39
2019-04-03T08:34:46.998Z,13.37
2019-04-03T08:37:28.388Z,13.65
2019-04-03T08:39:51.085Z,13.69
2019-04-03T08:42:22.323Z,13.68
2019-04-03T08:44:53.601Z,13.91
2019-04-03T08:47:24.811Z,14.40
2019-04-03T08:49:57.214Z,14.39
2019-04-03T08:52:29.034Z,14.15
2019-04-03T08:55:00.558Z,14.27
2019-04-03T08:57:32.618Z,14.21
2019-04-03T09:00:04.295Z,14.06
2019-04-03T09:02:35.683Z,14.41
2019-04-03T09:05:08.283Z,14.55
2019-04-03T09:07:39.574Z,14.23
2019-04-03T09:10:11.106Z,14.45
2019-04-03T09:12:42.315Z,14.41
2019-04-03T09:15:13.583Z,14.53
2019-04-03T09:17:44.907Z,14.74
2019-04-03T09:20:16.511Z,14.93
2019-04-03T09:22:48.105Z,14.64
2019-04-03T09:25:19.363Z,14.63
2019-04-03T09:27:50.767Z,15.05
2019-04-03T09:30:23.816Z,15.08
2019-04-03T09:32:54.712Z,14.97
2019-04-03T09:35:25.827Z,15.06
2019-04-03T09:37:57.085Z,14.95
2019-04-03T09:40:28.234Z,15.03
2019-04-03T09:42:59.197Z,14.93
2019-04-03T09:45:30.470Z,14.99
2019-04-03T09:48:03.215Z,14.96
2019-04-03T09:50:35.027Z,15.01
2019-04-03T09:53:06.751Z,15.03
2019-04-03T09:55:38.293Z,14.96
2019-04-03T09:58:09.720Z,15.13
2019-04-03T10:00:41.985Z,15.40
2019-04-03T10:03:14.086Z,15.45
2019-04-03T10:05:46.484Z,15.69
2019-04-03T10:08:17.434Z,16.31
2019-04-03T10:10:48.471Z,15.98
2019-04-03T10:13:19.950Z,15.98
2019-04-03T10:15:51.179Z,15.98
2019-04-03T10:18:22.622Z,16.09
2019-04-03T10:20:54.192Z,16.42
2019-04-03T10:23:28.191Z,16.16
2019-04-03T10:25:59.089Z,16.05
2019-04-03T10:28:31.295Z,16.10
2019-04-03T10:31:03.168Z,16.03
2019-04-03T10:33:34.866Z,15.91
2019-04-03T10:36:06.430Z,15.52
2019-04-03T10:38:37.673Z,15.29
2019-04-03T10:41:10.983Z,15.57
2019-04-03T10:43:42.152Z,15.61
2019-04-03T10:46:13.351Z,15.61
2019-04-03T10:48:44.764Z,15.63
2019-04-03T10:51:16.228Z,15.81
2019-04-03T10:53:48.927Z,16.74
2019-04-03T10:56:20.494Z,16.74
2019-04-03T10:58:51.724Z,17.11
2019-04-03T11:01:23.362Z,17.24
2019-04-03T11:03:54.656Z,17.57
2019-04-03T11:06:25.826Z,17.53
2019-04-03T11:08:57.052Z,17.41
2019-04-03T11:11:29.660Z,17.17
2019-04-03T11:14:03.003Z,17.07
2019-04-03T11:16:34.380Z,17.29
2019-04-03T11:19:07.265Z,17.49
2019-04-03T11:21:38.708Z,17.44
2019-04-03T11:24:10.206Z,17.36
2019-04-03T11:26:41.338Z,17.24
2019-04-03T11:29:12.797Z,17.23
2019-04-03T11:31:44.184Z,17.60
2019-04-03T11:34:18.320Z,17.60
2019-04-03T11:37:08.499Z,17.70
2019-04-03T11:39:41.964Z,17.39
2019-04-03T11:42:27.169Z,17.23
2019-04-03T11:45:11.615Z,17.03
2019-04-03T11:48:26.411Z,17.28
2019-04-03T11:50:39.448Z,17.61
2019-04-03T11:56:40.267Z,17.19
2019-04-03T11:59:40.258Z,17.20
2019-04-03T12:02:58.788Z,17.37
2019-04-03T12:06:11.181Z,17.28
2019-04-03T12:08:45.699Z,17.12
2019-04-03T12:11:17.696Z,17.06
2019-04-03T12:13:49.402Z,16.91
2019-04-03T12:16:24.033Z,16.82
2019-04-03T12:18:53.878Z,16.70
2019-04-03T12:21:25.411Z,16.79
2019-04-03T12:23:58.148Z,16.83
2019-04-03T12:26:29.896Z,16.37
2019-04-03T12:29:00.999Z,16.37
2019-04-03T12:31:32.552Z,16.30
2019-04-03T12:34:06.423Z,15.94
2019-04-03T12:36:37.163Z,15.94
2019-04-03T12:39:16.051Z,16.36
2019-04-03T12:41:47.172Z,16.36
2019-04-03T12:44:20.751Z,16.29
2019-04-03T12:46:51.663Z,16.24
2019-04-03T12:49:24.224Z,16.24
2019-04-03T12:51:55.695Z,16.40
2019-04-03T12:54:27.148Z,16.27
2019-04-03T12:57:00.293Z,16.27
2019-04-03T12:59:31.719Z,16.27
2019-04-03T13:02:03.781Z,16.21
2019-04-03T13:04:35.016Z,16.08
2019-04-03T13:07:06.733Z,16.26
2019-04-03T13:09:38.724Z,16.39
2019-04-03T13:12:10.721Z,16.36
2019-04-03T13:14:42.935Z,16.35
2019-04-03T13:17:14.786Z,16.33
2019-04-03T13:19:46.675Z,16.33
2019-04-03T13:22:18.846Z,16.47
2019-04-03T13:24:49.999Z,16.53
2019-04-03T13:27:21.372Z,16.41
2019-04-03T13:29:52.681Z,16.24
2019-04-03T13:32:24.787Z,16.26
2019-04-03T13:34:56.203Z,16.26
2019-04-03T13:37:27.660Z,16.33
2019-04-03T13:40:00.520Z,16.38
2019-04-03T13:42:32.281Z,16.36
2019-04-03T13:45:04.903Z,16.36
2019-04-03T13:47:35.988Z,16.31
2019-04-03T13:50:07.803Z,16.34
2019-04-03T13:52:43.065Z,16.27
2019-04-03T13:55:12.246Z,16.07
2019-04-03T13:57:43.859Z,16.09
2019-04-03T14:00:20.982Z,16.05
2019-04-03T14:02:48.853Z,16.05
2019-04-03T14:05:20.296Z,16.04
2019-04-03T14:07:51.498Z,16.01
2019-04-03T14:10:24.525Z,16.01
2019-04-03T14:12:55.791Z,16.23
2019-04-03T14:15:26.996Z,16.23
2019-04-03T14:17:59.627Z,16.38
2019-04-03T14:20:31.151Z,16.42
2019-04-03T14:23:03.901Z,16.41
2019-04-03T14:25:38.454Z,16.14
2019-04-03T14:28:09.697Z,16.14
2019-04-03T14:30:43.637Z,16.04
2019-04-03T14:33:14.564Z,16.06
2019-04-03T14:35:52.324Z,16.15
2019-04-03T14:38:19.084Z,16.15
2019-04-03T14:40:50.562Z,15.95
2019-04-03T14:43:22.384Z,15.86
2019-04-03T14:45:53.965Z,15.91
2019-04-03T14:48:26.312Z,15.78
2019-04-03T14:50:58.692Z,15.78
2019-04-03T14:53:30.154Z,15.92
2019-04-03T14:56:02.043Z,15.76
2019-04-03T14:58:33.119Z,15.77
2019-04-03T15:01:04.409Z,15.77
2019-04-03T15:03:35.607Z,15.73
2019-04-03T15:06:06.947Z,15.75
2019-04-03T15:08:38.339Z,15.78
2019-04-03T15:11:10.002Z,15.75
2019-04-03T15:13:41.295Z,15.76
2019-04-03T15:16:13.058Z,15.69
2019-04-03T15:18:44.735Z,15.64
2019-04-03T15:21:15.839Z,15.70
2019-04-03T15:23:47.488Z,15.63
2019-04-03T15:26:21.830Z,15.72
2019-04-03T15:28:56.829Z,15.68
2019-04-03T15:31:28.874Z,15.62
2019-04-03T15:34:00.496Z,15.61
2019-04-03T15:36:34.917Z,15.64
2019-04-03T15:39:07.572Z,15.64
2019-04-03T15:41:39.211Z,15.45
2019-04-03T15:44:10.543Z,15.36
2019-04-03T15:46:41.791Z,15.24
2019-04-03T15:49:13.276Z,15.20
2019-04-03T15:51:44.726Z,15.10
2019-04-03T15:54:16.229Z,15.09
2019-04-03T15:56:47.530Z,14.94
2019-04-03T15:59:18.639Z,14.92
2019-04-03T16:01:50.145Z,14.83
2019-04-03T16:04:21.707Z,14.85
2019-04-03T16:06:53.331Z,14.74
2019-04-03T16:09:24.733Z,14.71
2019-04-03T16:11:56.208Z,14.71
2019-04-03T16:14:28.545Z,14.61
2019-04-03T16:17:02.943Z,14.66
2019-04-03T16:19:35.223Z,14.67
2019-04-03T16:22:07.005Z,14.63
2019-04-03T16:24:38.297Z,14.58
2019-04-03T16:27:09.444Z,14.53
2019-04-03T16:29:41.328Z,14.50
2019-04-03T16:32:12.945Z,14.39
2019-04-03T16:34:44.246Z,14.27
2019-04-03T16:37:15.680Z,14.09
2019-04-03T16:39:47.347Z,14.05
2019-04-03T16:42:19.091Z,14.05
2019-04-03T16:44:50.722Z,14.09
2019-04-03T16:47:22.029Z,13.97
2019-04-03T16:49:54.867Z,13.91
2019-04-03T16:52:26.669Z,13.86
2019-04-03T16:54:58.408Z,13.82
2019-04-03T16:57:29.790Z,13.82
2019-04-03T17:00:00.960Z,13.75
2019-04-03T17:02:32.235Z,13.59
2019-04-03T17:05:03.502Z,13.53
2019-04-03T17:07:37.447Z,13.48
2019-04-03T17:10:09.994Z,13.53
2019-04-03T17:12:41.390Z,13.43
2019-04-03T17:15:13.034Z,13.35
2019-04-03T17:17:46.217Z,13.35
2019-04-03T17:20:20.334Z,13.37
2019-04-03T17:22:51.467Z,13.22
2019-04-03T17:25:23.255Z,13.22
2019-04-03T17:27:57.810Z,13.02
2019-04-03T17:30:27.558Z,12.85
2019-04-03T17:33:00.399Z,12.65
2019-04-03T17:35:31.606Z,12.55
2019-04-03T17:38:03.161Z,12.55
2019-04-03T17:40:36.378Z,12.51
2019-04-03T17:43:07.523Z,12.44
2019-04-03T17:45:46.506Z,12.38
2019-04-03T17:48:19.537Z,12.36
2019-04-03T17:50:51.110Z,12.22
2019-04-03T17:53:22.265Z,12.27
2019-04-03T17:55:53.907Z,12.33
2019-04-03T17:58:25.604Z,12.34
2019-04-03T18:00:57.074Z,12.30
2019-04-03T18:03:28.367Z,12.25
2019-04-03T18:05:59.537Z,12.17
2019-04-03T18:08:32.593Z,12.15
2019-04-03T18:11:28.536Z,12.11
2019-04-03T18:14:01.502Z,12.01
2019-04-03T18:16:32.920Z,11.86
2019-04-03T18:19:05.415Z,11.85
2019-04-03T18:21:37.041Z,11.73
2019-04-03T18:24:08.632Z,11.68
2019-04-03T18:26:40.135Z,11.59
2019-04-03T18:29:11.680Z,11.43
2019-04-03T18:31:44.703Z,11.51
2019-04-03T18:34:16.291Z,11.41
2019-04-03T18:36:48.182Z,11.44
2019-04-03T18:39:19.700Z,11.43
2019-04-03T18:41:51.335Z,11.39
2019-04-03T18:44:26.056Z,11.41
2019-04-03T18:46:56.474Z,11.39
2019-04-03T18:49:28.107Z,11.24
2019-04-03T18:51:59.872Z,11.28
2019-04-03T18:54:31.456Z,11.23
2019-04-03T18:57:02.936Z,11.20
2019-04-03T18:59:34.479Z,11.04
2019-04-03T19:02:06.226Z,10.90
2019-04-03T19:04:38.303Z,10.75
2019-04-03T19:07:09.852Z,10.76
2019-04-03T19:09:41.297Z,10.82
2019-04-03T19:12:13.504Z,10.74
2019-04-03T19:14:44.920Z,10.63
2019-04-03T19:17:16.590Z,10.59
2019-04-03T19:19:48.264Z,10.59
2019-04-03T19:22:19.671Z,10.63
2019-04-03T19:24:51.496Z,10.58
2019-04-03T19:27:22.945Z,10.65
2019-04-03T19:29:54.687Z,10.72
2019-04-03T19:32:26.121Z,10.74
2019-04-03T19:34:57.737Z,10.75
2019-04-03T19:37:29.281Z,10.74
2019-04-03T19:40:01.555Z,10.76
2019-04-03T19:42:34.866Z,10.73
2019-04-03T19:45:07.519Z,10.69
2019-04-03T19:47:39.243Z,10.52
2019-04-03T19:50:10.992Z,10.49
2019-04-03T19:52:42.743Z,10.47
2019-04-03T19:55:14.341Z,10.42
2019-04-03T19:57:45.794Z,10.29
2019-04-03T20:00:17.401Z,10.34
2019-04-03T20:02:48.931Z,10.25
2019-04-03T20:05:20.314Z,10.30
2019-04-03T20:07:51.891Z,10.25
2019-04-03T20:10:23.322Z,10.05
2019-04-03T20:12:54.869Z,10.13
2019-04-03T20:15:26.074Z,10.14
2019-04-03T20:17:57.478Z,10.00
2019-04-03T20:20:31.464Z,9.93
2019-04-03T20:23:02.438Z,9.93
2019-04-03T20:25:33.968Z,9.95
2019-04-03T20:28:05.714Z,9.88
2019-04-03T20:30:37.551Z,9.80
2019-04-03T20:33:11.425Z,9.86
2019-04-03T20:35:42.583Z,9.81
2019-04-03T20:38:14.353Z,9.71
2019-04-03T20:40:45.930Z,9.65
2019-04-03T20:43:17.353Z,9.78
2019-04-03T20:45:49.773Z,9.80
2019-04-03T20:48:21.895Z,9.86
2019-04-03T20:50:53.514Z,9.76
2019-04-03T20:53:25.112Z,9.59
2019-04-03T20:55:58.135Z,9.46
2019-04-03T20:58:30.303Z,9.43
2019-04-03T21:01:06.856Z,9.42
2019-04-03T21:03:36.091Z,9.44
2019-04-03T21:06:07.524Z,9.39
2019-04-03T21:08:39.334Z,9.42
2019-04-03T21:11:11.790Z,9.45
2019-04-03T21:13:43.303Z,9.41
2019-04-03T21:16:16.654Z,9.37
2019-04-03T21:18:51.150Z,9.24
2019-04-03T21:21:21.594Z,9.31
2019-04-03T21:23:52.978Z,9.23
2019-04-03T21:26:24.396Z,9.16
2019-04-03T21:28:56.106Z,9.11
2019-04-03T21:31:27.800Z,9.17
2019-04-03T21:34:01.619Z,9.06
2019-04-03T21:36:32.853Z,9.08
2019-04-03T21:39:06.239Z,9.07
2019-04-03T21:41:37.817Z,9.06
2019-04-03T21:44:09.399Z,9.03
2019-04-03T21:46:41.000Z,8.96
2019-04-03T21:49:12.427Z,8.94
2019-04-03T21:51:43.659Z,8.97
2019-04-03T21:54:14.891Z,8.91
2019-04-03T21:56:46.182Z,8.70
2019-04-03T21:59:17.522Z,8.56
2019-04-03T22:01:49.041Z,8.60
2019-04-03T22:04:20.940Z,8.67
2019-04-03T22:06:53.499Z,8.61
2019-04-03T22:09:24.855Z,8.60
2019-04-03T22:11:56.180Z,8.71
2019-04-03T22:14:27.682Z,8.64
2019-04-03T22:17:00.470Z,8.67
2019-04-03T22:19:31.921Z,8.59
2019-04-03T22:22:03.643Z,8.54
2019-04-03T22:24:37.760Z,8.49
2019-04-03T22:27:11.309Z,8.46
2019-04-03T22:29:42.988Z,8.32
2019-04-03T22:32:14.525Z,8.38
2019-04-03T22:34:46.323Z,8.31
2019-04-03T22:37:18.001Z,8.36
2019-04-03T22:39:50.500Z,8.25
2019-04-03T22:42:22.146Z,8.25
2019-04-03T22:44:53.665Z,8.17
2019-04-03T22:47:25.718Z,8.17
2019-04-03T22:49:57.403Z,8.12
2019-04-03T22:52:28.840Z,8.11
2019-04-03T22:55:00.393Z,8.11
2019-04-03T22:57:31.794Z,8.10
2019-04-03T23:00:03.528Z,8.10
2019-04-03T23:02:36.935Z,8.06
2019-04-03T23:05:08.467Z,8.00
2019-04-03T23:07:40.028Z,8.00
2019-04-03T23:10:11.567Z,7.88
2019-04-03T23:12:43.106Z,7.98
2019-04-03T23:15:14.746Z,7.92
2019-04-03T23:17:46.072Z,7.93
2019-04-03T23:20:17.784Z,7.83
2019-04-03T23:22:49.358Z,7.84
2019-04-03T23:25:20.853Z,7.84
2019-04-03T23:27:52.566Z,7.82
2019-04-03T23:30:24.197Z,7.78
2019-04-03T23:32:55.851Z,7.91
2019-04-03T23:35:27.334Z,7.89
2019-04-03T23:37:58.921Z,7.91
2019-04-03T23:40:30.529Z,7.90
2019-04-03T23:43:02.076Z,7.88
2019-04-03T23:45:33.635Z,7.74
2019-04-03T23:48:05.336Z,7.80
2019-04-03T23:50:36.986Z,7.81
2019-04-03T23:53:08.590Z,7.66
2019-04-03T23:55:40.214Z,7.64
2019-04-03T23:58:11.634Z,7.55
